sensor_id;sensor_type;location;lat;lon;timestamp;pressure;altitude;pressure_sealevel;temperature;humidity
59877;BME280;45749;51.140;17.184;2023-07-13T00:00:23;99672.00;;;22.90;70.94
59877;BME280;45749;51.140;17.184;2023-07-13T00:02:48;99694.56;;;22.96;71.14
59877;BME280;45749;51.140;17.184;2023-07-13T00:05:14;99652.94;;;22.72;71.19
59877;BME280;45749;51.140;17.184;2023-07-13T00:07:39;99685.84;;;22.87;71.40
59877;BME280;45749;51.140;17.184;2023-07-13T00:10:05;99670.53;;;22.75;71.63
59877;BME280;45749;51.140;17.184;2023-07-13T00:12:35;99676.13;;;22.80;71.54
59877;BME280;45749;51.140;17.184;2023-07-13T00:15:06;99662.88;;;22.65;71.90
59877;BME280;45749;51.140;17.184;2023-07-13T00:17:32;99688.31;;;22.76;72.06
59877;BME280;45749;51.140;17.184;2023-07-13T00:19:58;99674.06;;;22.68;72.15
59877;BME280;45749;51.140;17.184;2023-07-13T00:22:24;99674.06;;;22.68;72.49
59877;BME280;45749;51.140;17.184;2023-07-13T00:24:51;99673.63;;;22.65;72.46
59877;BME280;45749;51.140;17.184;2023-07-13T00:27:17;99660.59;;;22.55;72.36
59877;BME280;45749;51.140;17.184;2023-07-13T00:29:43;99668.84;;;22.60;72.41
59877;BME280;45749;51.140;17.184;2023-07-13T00:32:08;99655.41;;;22.54;72.54
59877;BME280;45749;51.140;17.184;2023-07-13T00:34:35;99658.56;;;22.64;72.14
59877;BME280;45749;51.140;17.184;2023-07-13T00:37:00;99675.50;;;22.84;72.28
59877;BME280;45749;51.140;17.184;2023-07-13T00:39:25;99683.59;;;22.84;72.22
59877;BME280;45749;51.140;17.184;2023-07-13T00:41:51;99694.75;;;22.81;72.30
59877;BME280;45749;51.140;17.184;2023-07-13T00:44:18;99680.25;;;22.62;72.87
59877;BME280;45749;51.140;17.184;2023-07-13T00:46:44;99680.25;;;22.69;72.95
59877;BME280;45749;51.140;17.184;2023-07-13T00:49:12;99684.59;;;22.70;72.53
59877;BME280;45749;51.140;17.184;2023-07-13T00:51:48;99685.63;;;22.76;72.46
59877;BME280;45749;51.140;17.184;2023-07-13T00:54:18;99690.38;;;22.80;72.71
59877;BME280;45749;51.140;17.184;2023-07-13T00:56:45;99678.63;;;22.75;72.62
59877;BME280;45749;51.140;17.184;2023-07-13T00:59:12;99669.09;;;22.65;73.00
59877;BME280;45749;51.140;17.184;2023-07-13T01:01:38;99683.97;;;22.68;73.13
59877;BME280;45749;51.140;17.184;2023-07-13T01:04:04;99692.06;;;22.68;73.35
59877;BME280;45749;51.140;17.184;2023-07-13T01:06:34;99698.44;;;22.74;73.41
59877;BME280;45749;51.140;17.184;2023-07-13T01:09:00;99681.72;;;22.71;73.58
59877;BME280;45749;51.140;17.184;2023-07-13T01:11:26;99699.72;;;22.84;73.38
59877;BME280;45749;51.140;17.184;2023-07-13T01:13:51;99741.75;;;22.99;73.27
59877;BME280;45749;51.140;17.184;2023-07-13T01:16:36;99728.88;;;22.61;73.66
59877;BME280;45749;51.140;17.184;2023-07-13T01:19:10;99735.69;;;22.70;74.52
59877;BME280;45749;51.140;17.184;2023-07-13T01:21:38;99700.94;;;22.62;75.01
59877;BME280;45749;51.140;17.184;2023-07-13T01:24:08;99700.53;;;22.65;74.80
59877;BME280;45749;51.140;17.184;2023-07-13T01:26:34;99682.28;;;22.47;75.56
59877;BME280;45749;51.140;17.184;2023-07-13T01:28:59;99688.91;;;22.38;75.87
59877;BME280;45749;51.140;17.184;2023-07-13T01:31:24;99686.63;;;22.41;75.90
59877;BME280;45749;51.140;17.184;2023-07-13T01:33:50;99684.34;;;22.38;76.00
59877;BME280;45749;51.140;17.184;2023-07-13T01:36:15;99680.00;;;22.37;76.23
59877;BME280;45749;51.140;17.184;2023-07-13T01:38:40;99680.44;;;22.34;76.30
59877;BME280;45749;51.140;17.184;2023-07-13T01:41:06;99682.91;;;22.36;76.44
59877;BME280;45749;51.140;17.184;2023-07-13T01:43:31;99684.34;;;22.38;76.14
59877;BME280;45749;51.140;17.184;2023-07-13T01:45:57;99679.59;;;22.40;76.31
59877;BME280;45749;51.140;17.184;2023-07-13T01:48:22;99680.44;;;22.34;76.19
59877;BME280;45749;51.140;17.184;2023-07-13T01:50:48;99679.38;;;22.29;76.03
59877;BME280;45749;51.140;17.184;2023-07-13T01:53:13;99674.59;;;22.24;76.20
59877;BME280;45749;51.140;17.184;2023-07-13T01:55:38;99674.16;;;22.20;76.65
59877;BME280;45749;51.140;17.184;2023-07-13T01:58:05;99655.09;;;22.09;76.80
59877;BME280;45749;51.140;17.184;2023-07-13T02:00:30;99663.34;;;22.07;76.94
59877;BME280;45749;51.140;17.184;2023-07-13T02:02:56;99655.06;;;21.95;77.19
59877;BME280;45749;51.140;17.184;2023-07-13T02:05:21;99662.47;;;21.93;77.13
59877;BME280;45749;51.140;17.184;2023-07-13T02:07:47;99660.38;;;21.82;77.30
59877;BME280;45749;51.140;17.184;2023-07-13T02:10:12;99676.50;;;21.82;77.70
59877;BME280;45749;51.140;17.184;2023-07-13T02:12:38;99663.22;;;21.74;77.69
59877;BME280;45749;51.140;17.184;2023-07-13T02:15:04;99670.47;;;21.73;78.01
59877;BME280;45749;51.140;17.184;2023-07-13T02:17:30;99663.03;;;21.69;77.82
59877;BME280;45749;51.140;17.184;2023-07-13T02:19:55;99641.69;;;21.61;77.56
59877;BME280;45749;51.140;17.184;2023-07-13T02:22:21;99632.78;;;21.53;77.79
59877;BME280;45749;51.140;17.184;2023-07-13T02:24:47;99638.56;;;21.50;77.99
59877;BME280;45749;51.140;17.184;2023-07-13T02:27:12;99634.78;;;21.45;77.79
59877;BME280;45749;51.140;17.184;2023-07-13T02:29:37;99645.75;;;21.43;78.03
59877;BME280;45749;51.140;17.184;2023-07-13T02:32:03;99644.88;;;21.36;77.81
59877;BME280;45749;51.140;17.184;2023-07-13T02:34:28;99651.00;;;21.30;77.89
59877;BME280;45749;51.140;17.184;2023-07-13T02:36:54;99627.78;;;21.16;78.35
59877;BME280;45749;51.140;17.184;2023-07-13T02:39:19;99636.47;;;21.18;78.28
59877;BME280;45749;51.140;17.184;2023-07-13T02:41:44;99639.38;;;21.16;78.13
59877;BME280;45749;51.140;17.184;2023-07-13T02:44:12;99631.72;;;21.13;78.33
59877;BME280;45749;51.140;17.184;2023-07-13T02:46:38;99629.81;;;21.07;78.51
59877;BME280;45749;51.140;17.184;2023-07-13T02:49:03;99633.28;;;21.01;78.54
59877;BME280;45749;51.140;17.184;2023-07-13T02:51:29;99635.31;;;20.99;78.71
59877;BME280;45749;51.140;17.184;2023-07-13T02:53:54;99626.84;;;20.95;79.08
59877;BME280;45749;51.140;17.184;2023-07-13T02:56:23;99639.84;;;20.98;78.79
59877;BME280;45749;51.140;17.184;2023-07-13T02:58:49;99646.84;;;20.93;78.70
59877;BME280;45749;51.140;17.184;2023-07-13T03:01:14;99656.72;;;20.92;79.22
59877;BME280;45749;51.140;17.184;2023-07-13T03:03:44;99655.66;;;20.87;79.21
59877;BME280;45749;51.140;17.184;2023-07-13T03:06:11;99664.53;;;20.87;79.21
59877;BME280;45749;51.140;17.184;2023-07-13T03:08:36;99662.84;;;20.86;79.42
59877;BME280;45749;51.140;17.184;2023-07-13T03:11:03;99665.75;;;20.84;79.70
59877;BME280;45749;51.140;17.184;2023-07-13T03:13:30;99669.47;;;20.83;79.44
59877;BME280;45749;51.140;17.184;2023-07-13T03:15:56;99661.97;;;20.79;79.73
59877;BME280;45749;51.140;17.184;2023-07-13T03:18:21;99653.94;;;20.79;80.06
59877;BME280;45749;51.140;17.184;2023-07-13T03:20:50;99661.97;;;20.79;80.45
59877;BME280;45749;51.140;17.184;2023-07-13T03:23:15;99659.50;;;20.77;80.59
59877;BME280;45749;51.140;17.184;2023-07-13T03:25:41;99651.03;;;20.74;80.46
59877;BME280;45749;51.140;17.184;2023-07-13T03:28:06;99658.69;;;20.77;80.47
59877;BME280;45749;51.140;17.184;2023-07-13T03:30:32;99648.78;;;20.77;81.00
59877;BME280;45749;51.140;17.184;2023-07-13T03:32:57;99644.69;;;20.81;80.81
59877;BME280;45749;51.140;17.184;2023-07-13T03:35:22;99652.34;;;20.84;81.13
59877;BME280;45749;51.140;17.184;2023-07-13T03:37:48;99657.50;;;20.86;80.94
59877;BME280;45749;51.140;17.184;2023-07-13T03:40:13;99655.66;;;20.87;81.15
59877;BME280;45749;51.140;17.184;2023-07-13T03:42:38;99662.13;;;20.99;80.81
59877;BME280;45749;51.140;17.184;2023-07-13T03:45:04;99670.63;;;21.02;81.15
59877;BME280;45749;51.140;17.184;2023-07-13T03:47:30;99665.66;;;20.99;80.93
59877;BME280;45749;51.140;17.184;2023-07-13T03:49:55;99669.19;;;21.00;81.31
59877;BME280;45749;51.140;17.184;2023-07-13T03:52:20;99656.16;;;20.97;81.50
59877;BME280;45749;51.140;17.184;2023-07-13T03:54:46;99656.97;;;20.97;81.69
59877;BME280;45749;51.140;17.184;2023-07-13T03:57:11;99646.25;;;20.97;81.68
59877;BME280;45749;51.140;17.184;2023-07-13T03:59:36;99658.44;;;21.00;81.76
59877;BME280;45749;51.140;17.184;2023-07-13T04:02:02;99655.94;;;20.98;82.02
59877;BME280;45749;51.140;17.184;2023-07-13T04:04:29;99656.81;;;21.05;82.15
59877;BME280;45749;51.140;17.184;2023-07-13T04:06:57;99649.41;;;21.07;82.02
59877;BME280;45749;51.140;17.184;2023-07-13T04:09:23;99657.25;;;21.09;82.17
59877;BME280;45749;51.140;17.184;2023-07-13T04:11:49;99654.13;;;21.05;82.03
59877;BME280;45749;51.140;17.184;2023-07-13T04:14:14;99660.97;;;21.08;81.71
59877;BME280;45749;51.140;17.184;2023-07-13T04:16:39;99666.59;;;21.13;82.10
59877;BME280;45749;51.140;17.184;2023-07-13T04:19:04;99673.59;;;21.14;82.45
59877;BME280;45749;51.140;17.184;2023-07-13T04:21:31;99686.63;;;21.17;82.82
59877;BME280;45749;51.140;17.184;2023-07-13T04:23:57;99688.97;;;21.27;82.69
59877;BME280;45749;51.140;17.184;2023-07-13T04:26:23;99693.53;;;21.33;83.00
59877;BME280;45749;51.140;17.184;2023-07-13T04:28:50;99708.81;;;21.33;83.00
59877;BME280;45749;51.140;17.184;2023-07-13T04:31:15;99708.56;;;21.27;82.72
59877;BME280;45749;51.140;17.184;2023-07-13T04:33:41;99729.00;;;21.28;82.68
59877;BME280;45749;51.140;17.184;2023-07-13T04:36:08;99761.47;;;21.34;82.67
59877;BME280;45749;51.140;17.184;2023-07-13T04:38:34;99810.13;;;21.30;83.05
59877;BME280;45749;51.140;17.184;2023-07-13T04:41:02;99825.47;;;21.15;82.02
59877;BME280;45749;51.140;17.184;2023-07-13T04:43:29;99834.16;;;20.96;80.99
59877;BME280;45749;51.140;17.184;2023-07-13T04:45:55;99878.97;;;20.80;80.27
59877;BME280;45749;51.140;17.184;2023-07-13T04:48:21;99924.22;;;20.54;80.24
59877;BME280;45749;51.140;17.184;2023-07-13T04:50:47;99932.94;;;20.33;79.93
59877;BME280;45749;51.140;17.184;2023-07-13T04:53:13;99939.84;;;19.98;80.61
59877;BME280;45749;51.140;17.184;2023-07-13T04:55:38;99956.22;;;19.80;81.00
59877;BME280;45749;51.140;17.184;2023-07-13T04:58:04;99948.16;;;19.57;81.77
59877;BME280;45749;51.140;17.184;2023-07-13T05:00:30;99929.03;;;19.22;82.32
59877;BME280;45749;51.140;17.184;2023-07-13T05:02:57;99943.94;;;19.16;82.77
59877;BME280;45749;51.140;17.184;2023-07-13T05:05:23;99973.44;;;19.00;82.59
59877;BME280;45749;51.140;17.184;2023-07-13T05:07:49;99949.13;;;18.70;83.30
59877;BME280;45749;51.140;17.184;2023-07-13T05:10:15;99974.53;;;18.66;83.51
59877;BME280;45749;51.140;17.184;2023-07-13T05:12:41;99965.91;;;18.48;84.15
59877;BME280;45749;51.140;17.184;2023-07-13T05:15:07;99966.38;;;18.51;84.42
59877;BME280;45749;51.140;17.184;2023-07-13T05:17:32;99954.56;;;18.46;84.82
59877;BME280;45749;51.140;17.184;2023-07-13T05:19:58;99949.25;;;18.38;85.13
59877;BME280;45749;51.140;17.184;2023-07-13T05:22:23;99952.28;;;18.26;84.90
59877;BME280;45749;51.140;17.184;2023-07-13T05:24:48;99929.09;;;18.11;85.47
59877;BME280;45749;51.140;17.184;2023-07-13T05:27:14;99924.75;;;18.18;86.32
59877;BME280;45749;51.140;17.184;2023-07-13T05:29:39;99925.91;;;18.23;85.83
59877;BME280;45749;51.140;17.184;2023-07-13T05:32:04;99924.88;;;18.33;86.20
59877;BME280;45749;51.140;17.184;2023-07-13T05:34:30;99913.84;;;18.36;86.05
59877;BME280;45749;51.140;17.184;2023-07-13T05:36:55;99899.84;;;18.34;86.42
59877;BME280;45749;51.140;17.184;2023-07-13T05:39:21;99888.50;;;18.32;86.48
59877;BME280;45749;51.140;17.184;2023-07-13T05:41:46;99903.09;;;18.52;86.47
59877;BME280;45749;51.140;17.184;2023-07-13T05:44:12;99880.28;;;18.41;85.81
59877;BME280;45749;51.140;17.184;2023-07-13T05:46:37;99862.44;;;18.34;85.99
59877;BME280;45749;51.140;17.184;2023-07-13T05:49:03;99847.41;;;18.41;86.05
59877;BME280;45749;51.140;17.184;2023-07-13T05:51:28;99824.38;;;18.40;86.67
59877;BME280;45749;51.140;17.184;2023-07-13T05:53:54;99788.66;;;18.33;86.59
59877;BME280;45749;51.140;17.184;2023-07-13T05:56:19;99811.97;;;18.47;86.68
59877;BME280;45749;51.140;17.184;2023-07-13T05:58:45;99824.63;;;18.53;87.04
59877;BME280;45749;51.140;17.184;2023-07-13T06:01:12;99813.81;;;18.46;86.83
59877;BME280;45749;51.140;17.184;2023-07-13T06:03:38;99805.31;;;18.43;86.94
59877;BME280;45749;51.140;17.184;2023-07-13T06:06:05;99825.88;;;18.73;86.66
59877;BME280;45749;51.140;17.184;2023-07-13T06:08:34;99807.00;;;18.75;86.92
59877;BME280;45749;51.140;17.184;2023-07-13T06:11:09;99803.09;;;18.86;86.45
59877;BME280;45749;51.140;17.184;2023-07-13T06:13:35;99774.06;;;18.83;86.33
59877;BME280;45749;51.140;17.184;2023-07-13T06:16:02;99777.56;;;18.83;86.33
59877;BME280;45749;51.140;17.184;2023-07-13T06:18:30;99787.09;;;18.78;86.63
59877;BME280;45749;51.140;17.184;2023-07-13T06:20:55;99818.41;;;18.92;86.67
59877;BME280;45749;51.140;17.184;2023-07-13T06:23:20;99807.59;;;18.85;86.90
59877;BME280;45749;51.140;17.184;2023-07-13T06:25:46;99815.03;;;18.98;86.54
59877;BME280;45749;51.140;17.184;2023-07-13T06:28:11;99825.66;;;19.06;86.46
59877;BME280;45749;51.140;17.184;2023-07-13T06:30:38;99820.50;;;19.05;86.86
59877;BME280;45749;51.140;17.184;2023-07-13T06:33:04;99838.84;;;19.08;86.51
59877;BME280;45749;51.140;17.184;2023-07-13T06:35:29;99846.03;;;19.07;86.87
59877;BME280;45749;51.140;17.184;2023-07-13T06:37:54;99848.25;;;19.04;87.68
59877;BME280;45749;51.140;17.184;2023-07-13T06:40:20;99846.94;;;19.00;87.34
59877;BME280;45749;51.140;17.184;2023-07-13T06:42:45;99851.28;;;19.01;87.99
59877;BME280;45749;51.140;17.184;2023-07-13T06:45:10;99856.25;;;19.04;88.42
59877;BME280;45749;51.140;17.184;2023-07-13T06:47:36;99856.94;;;19.06;88.53
59877;BME280;45749;51.140;17.184;2023-07-13T06:50:01;99846.94;;;19.00;88.43
59877;BME280;45749;51.140;17.184;2023-07-13T06:52:26;99857.63;;;19.00;88.36
59877;BME280;45749;51.140;17.184;2023-07-13T06:54:51;99870.47;;;19.04;88.10
59877;BME280;45749;51.140;17.184;2023-07-13T06:57:17;99892.53;;;19.06;88.33
59877;BME280;45749;51.140;17.184;2023-07-13T06:59:42;99904.72;;;19.09;88.11
59877;BME280;45749;51.140;17.184;2023-07-13T07:02:09;99931.69;;;19.22;88.45
59877;BME280;45749;51.140;17.184;2023-07-13T07:04:35;99932.34;;;19.24;88.08
59877;BME280;45749;51.140;17.184;2023-07-13T07:07:01;99938.16;;;19.28;88.22
59877;BME280;45749;51.140;17.184;2023-07-13T07:09:26;99945.47;;;19.34;88.04
59877;BME280;45749;51.140;17.184;2023-07-13T07:11:51;99954.19;;;19.36;88.02
59877;BME280;45749;51.140;17.184;2023-07-13T07:14:17;99981.56;;;19.38;87.55
59877;BME280;45749;51.140;17.184;2023-07-13T07:16:42;99985.31;;;19.29;87.09
59877;BME280;45749;51.140;17.184;2023-07-13T07:19:08;100004.41;;;19.26;87.62
59877;BME280;45749;51.140;17.184;2023-07-13T07:21:33;100013.59;;;19.23;87.80
59877;BME280;45749;51.140;17.184;2023-07-13T07:23:58;100015.94;;;19.18;88.27
59877;BME280;45749;51.140;17.184;2023-07-13T07:26:25;100006.13;;;19.10;87.88
59877;BME280;45749;51.140;17.184;2023-07-13T07:28:50;100008.66;;;19.04;88.38
59877;BME280;45749;51.140;17.184;2023-07-13T07:31:15;100028.22;;;19.04;88.61
59877;BME280;45749;51.140;17.184;2023-07-13T07:33:41;100017.88;;;19.01;88.64
59877;BME280;45749;51.140;17.184;2023-07-13T07:36:06;99985.84;;;18.93;88.96
59877;BME280;45749;51.140;17.184;2023-07-13T07:38:32;99960.75;;;18.94;89.34
59877;BME280;45749;51.140;17.184;2023-07-13T07:40:57;99941.22;;;18.85;89.18
59877;BME280;45749;51.140;17.184;2023-07-13T07:43:23;99956.50;;;19.08;89.23
59877;BME280;45749;51.140;17.184;2023-07-13T07:45:48;99949.63;;;19.13;89.33
59877;BME280;45749;51.140;17.184;2023-07-13T07:48:13;99922.81;;;19.21;89.01
59877;BME280;45749;51.140;17.184;2023-07-13T07:50:39;99888.56;;;19.25;89.29
59877;BME280;45749;51.140;17.184;2023-07-13T07:53:06;99857.75;;;19.29;89.41
59877;BME280;45749;51.140;17.184;2023-07-13T07:55:34;99820.94;;;19.31;89.09
59877;BME280;45749;51.140;17.184;2023-07-13T07:58:00;99794.09;;;19.25;89.34
59877;BME280;45749;51.140;17.184;2023-07-13T08:00:25;99811.25;;;19.30;89.28
59877;BME280;45749;51.140;17.184;2023-07-13T08:02:52;99818.28;;;19.31;89.35
59877;BME280;45749;51.140;17.184;2023-07-13T08:05:17;99825.78;;;19.36;89.31
59877;BME280;45749;51.140;17.184;2023-07-13T08:07:43;99805.09;;;19.30;89.59
59877;BME280;45749;51.140;17.184;2023-07-13T08:10:08;99816.09;;;19.35;89.90
59877;BME280;45749;51.140;17.184;2023-07-13T08:12:38;99836.38;;;19.44;89.87
59877;BME280;45749;51.140;17.184;2023-07-13T08:15:05;99849.41;;;19.47;89.93
59877;BME280;45749;51.140;17.184;2023-07-13T08:17:31;99871.28;;;19.51;90.10
59877;BME280;45749;51.140;17.184;2023-07-13T08:19:57;99885.78;;;19.56;90.40
59877;BME280;45749;51.140;17.184;2023-07-13T08:22:22;99899.44;;;19.70;91.01
59877;BME280;45749;51.140;17.184;2023-07-13T08:24:47;99871.59;;;19.56;90.41
59877;BME280;45749;51.140;17.184;2023-07-13T08:27:20;99910.44;;;19.75;90.43
59877;BME280;45749;51.140;17.184;2023-07-13T08:29:47;99915.59;;;19.76;91.20
59877;BME280;45749;51.140;17.184;2023-07-13T08:32:12;99886.09;;;19.61;91.35
59877;BME280;45749;51.140;17.184;2023-07-13T08:34:39;99922.44;;;19.79;90.54
59877;BME280;45749;51.140;17.184;2023-07-13T08:37:05;99937.78;;;19.85;90.86
59877;BME280;45749;51.140;17.184;2023-07-13T08:39:31;99953.19;;;19.83;90.77
59877;BME280;45749;51.140;17.184;2023-07-13T08:42:02;99954.84;;;19.84;91.37
59877;BME280;45749;51.140;17.184;2023-07-13T08:44:42;99958.53;;;19.83;91.30
59877;BME280;45749;51.140;17.184;2023-07-13T08:47:11;99941.22;;;19.71;91.43
59877;BME280;45749;51.140;17.184;2023-07-13T08:49:39;99969.44;;;19.81;91.44
59877;BME280;45749;51.140;17.184;2023-07-13T08:52:13;99974.09;;;19.87;92.06
59877;BME280;45749;51.140;17.184;2023-07-13T08:54:47;99976.66;;;19.96;92.54
59877;BME280;45749;51.140;17.184;2023-07-13T08:57:15;99972.44;;;20.01;92.38
59877;BME280;45749;51.140;17.184;2023-07-13T08:59:40;99973.44;;;20.00;91.67
59877;BME280;45749;51.140;17.184;2023-07-13T09:02:23;99971.31;;;19.96;92.86
59877;BME280;45749;51.140;17.184;2023-07-13T09:04:55;99984.00;;;20.02;91.90
59877;BME280;45749;51.140;17.184;2023-07-13T09:07:40;99980.13;;;20.04;92.22
59877;BME280;45749;51.140;17.184;2023-07-13T09:10:30;99986.78;;;20.08;92.12
59877;BME280;45749;51.140;17.184;2023-07-13T09:15:34;99981.47;;;20.00;92.14
59877;BME280;45749;51.140;17.184;2023-07-13T09:18:10;99975.13;;;20.01;92.21
59877;BME280;45749;51.140;17.184;2023-07-13T09:20:42;99972.91;;;20.05;92.65
59877;BME280;45749;51.140;17.184;2023-07-13T09:23:15;99975.34;;;20.14;92.63
59877;BME280;45749;51.140;17.184;2023-07-13T09:25:45;99982.09;;;20.25;93.30
59877;BME280;45749;51.140;17.184;2023-07-13T09:28:18;99985.53;;;20.34;92.79
59877;BME280;45749;51.140;17.184;2023-07-13T09:31:00;99982.75;;;20.42;92.52
59877;BME280;45749;51.140;17.184;2023-07-13T09:33:27;99966.59;;;20.35;92.76
59877;BME280;45749;51.140;17.184;2023-07-13T09:35:55;99982.53;;;20.52;92.92
59877;BME280;45749;51.140;17.184;2023-07-13T09:38:24;99977.09;;;20.60;92.92
59877;BME280;45749;51.140;17.184;2023-07-13T09:41:00;99955.56;;;20.53;93.55
59877;BME280;45749;51.140;17.184;2023-07-13T09:43:29;99956.09;;;20.64;93.20
59877;BME280;45749;51.140;17.184;2023-07-13T09:45:55;99957.84;;;20.71;92.58
59877;BME280;45749;51.140;17.184;2023-07-13T09:48:21;99958.38;;;20.81;92.16
59877;BME280;45749;51.140;17.184;2023-07-13T09:50:47;99953.09;;;20.88;91.63
59877;BME280;45749;51.140;17.184;2023-07-13T09:53:17;99948.69;;;20.80;90.15
59877;BME280;45749;51.140;17.184;2023-07-13T09:55:46;99972.78;;;20.95;91.18
59877;BME280;45749;51.140;17.184;2023-07-13T09:58:21;99968.16;;;21.04;91.64
59877;BME280;45749;51.140;17.184;2023-07-13T10:00:58;99969.63;;;21.06;91.45
59877;BME280;45749;51.140;17.184;2023-07-13T10:03:30;99961.59;;;21.06;91.54
59877;BME280;45749;51.140;17.184;2023-07-13T10:06:11;99963.91;;;21.10;91.16
59877;BME280;45749;51.140;17.184;2023-07-13T10:08:37;99939.69;;;21.03;91.73
59877;BME280;45749;51.140;17.184;2023-07-13T10:11:23;99963.69;;;21.26;92.42
59877;BME280;45749;51.140;17.184;2023-07-13T10:14:01;99886.44;;;20.85;92.49
59877;BME280;45749;51.140;17.184;2023-07-13T10:16:35;99894.97;;;21.10;92.44
59877;BME280;45749;51.140;17.184;2023-07-13T10:19:13;99917.56;;;21.37;92.34
59877;BME280;45749;51.140;17.184;2023-07-13T10:21:53;99942.13;;;21.56;90.84
59877;BME280;45749;51.140;17.184;2023-07-13T10:24:25;99918.41;;;21.38;92.30
59877;BME280;45749;51.140;17.184;2023-07-13T10:26:56;99933.88;;;21.57;90.89
59877;BME280;45749;51.140;17.184;2023-07-13T10:29:27;99956.56;;;21.76;91.32
59877;BME280;45749;51.140;17.184;2023-07-13T10:31:53;99990.06;;;22.01;90.42
59877;BME280;45749;51.140;17.184;2023-07-13T10:34:20;99969.91;;;21.91;90.21
59877;BME280;45749;51.140;17.184;2023-07-13T10:36:47;99964.28;;;21.86;89.42
59877;BME280;45749;51.140;17.184;2023-07-13T10:39:26;99961.16;;;21.82;89.63
59877;BME280;45749;51.140;17.184;2023-07-13T10:42:01;99966.00;;;21.93;88.66
59877;BME280;45749;51.140;17.184;2023-07-13T10:44:31;99979.75;;;22.05;88.78
59877;BME280;45749;51.140;17.184;2023-07-13T10:47:07;99983.00;;;22.00;88.01
59877;BME280;45749;51.140;17.184;2023-07-13T10:49:34;99957.94;;;21.93;87.83
59877;BME280;45749;51.140;17.184;2023-07-13T10:52:02;99954.47;;;21.99;87.89
59877;BME280;45749;51.140;17.184;2023-07-13T10:54:31;99965.88;;;22.01;86.02
59877;BME280;45749;51.140;17.184;2023-07-13T10:59:38;99974.78;;;22.30;86.51
59877;BME280;45749;51.140;17.184;2023-07-13T11:02:10;99979.59;;;22.35;86.22
59877;BME280;45749;51.140;17.184;2023-07-13T11:04:48;99975.91;;;22.42;87.21
59877;BME280;45749;51.140;17.184;2023-07-13T11:07:24;99974.34;;;22.55;85.93
59877;BME280;45749;51.140;17.184;2023-07-13T11:09:52;99982.22;;;22.63;85.32
59877;BME280;45749;51.140;17.184;2023-07-13T11:23:07;99973.06;;;22.92;83.45
59877;BME280;45749;51.140;17.184;2023-07-13T11:25:31;99990.53;;;23.03;83.08
59877;BME280;45749;51.140;17.184;2023-07-13T11:33:21;99987.44;;;23.06;82.87
59877;BME280;45749;51.140;17.184;2023-07-13T11:35:58;99986.22;;;23.08;82.46
59877;BME280;45749;51.140;17.184;2023-07-13T11:38:38;99974.56;;;22.94;81.01
59877;BME280;45749;51.140;17.184;2023-07-13T11:41:07;99980.16;;;23.00;80.40
59877;BME280;45749;51.140;17.184;2023-07-13T11:43:38;99966.03;;;22.91;80.83
59877;BME280;45749;51.140;17.184;2023-07-13T11:46:20;99970.59;;;22.90;80.96
59877;BME280;45749;51.140;17.184;2023-07-13T11:48:47;99992.38;;;23.02;80.20
59877;BME280;45749;51.140;17.184;2023-07-13T11:51:33;99995.72;;;23.04;79.24
59877;BME280;45749;51.140;17.184;2023-07-13T11:54:33;99989.72;;;23.09;78.35
59877;BME280;45749;51.140;17.184;2023-07-13T11:59:48;99973.81;;;23.14;78.10
59877;BME280;45749;51.140;17.184;2023-07-13T12:02:24;99972.53;;;23.10;79.61
59877;BME280;45749;51.140;17.184;2023-07-13T12:04:52;99978.97;;;23.09;78.46
59877;BME280;45749;51.140;17.184;2023-07-13T12:07:18;99995.16;;;23.22;78.66
59877;BME280;45749;51.140;17.184;2023-07-13T12:09:45;99984.16;;;23.10;78.40
59877;BME280;45749;51.140;17.184;2023-07-13T12:12:13;99996.38;;;23.20;79.23
59877;BME280;45749;51.140;17.184;2023-07-13T12:14:39;100001.38;;;23.29;78.80
59877;BME280;45749;51.140;17.184;2023-07-13T12:17:23;99994.56;;;23.27;79.03
59877;BME280;45749;51.140;17.184;2023-07-13T12:19:49;99969.69;;;23.18;78.72
59877;BME280;45749;51.140;17.184;2023-07-13T12:22:17;99987.94;;;23.29;77.90
59877;BME280;45749;51.140;17.184;2023-07-13T12:24:44;99993.16;;;23.37;77.78
59877;BME280;45749;51.140;17.184;2023-07-13T12:27:23;99986.94;;;23.37;78.25
59877;BME280;45749;51.140;17.184;2023-07-13T12:29:50;99995.84;;;23.37;77.87
59877;BME280;45749;51.140;17.184;2023-07-13T12:32:18;99964.53;;;23.23;77.89
59877;BME280;45749;51.140;17.184;2023-07-13T12:35:14;99995.44;;;23.47;77.20
59877;BME280;45749;51.140;17.184;2023-07-13T12:37:45;99997.94;;;23.55;77.32
59877;BME280;45749;51.140;17.184;2023-07-13T12:40:19;99990.09;;;23.60;76.53
59877;BME280;45749;51.140;17.184;2023-07-13T12:42:48;99992.78;;;23.67;75.85
59877;BME280;45749;51.140;17.184;2023-07-13T12:45:25;99979.31;;;23.60;74.59
59877;BME280;45749;51.140;17.184;2023-07-13T12:47:57;99983.50;;;23.70;74.19
59877;BME280;45749;51.140;17.184;2023-07-13T12:50:34;99956.31;;;23.58;74.78
59877;BME280;45749;51.140;17.184;2023-07-13T12:53:05;99995.13;;;23.83;72.89
59877;BME280;45749;51.140;17.184;2023-07-13T12:55:42;99989.91;;;23.75;70.16
59877;BME280;45749;51.140;17.184;2023-07-13T12:58:25;99985.31;;;23.62;71.32
59877;BME280;45749;51.140;17.184;2023-07-13T13:00:51;99994.47;;;23.68;71.09
59877;BME280;45749;51.140;17.184;2023-07-13T13:05:46;99964.19;;;23.53;71.69
59877;BME280;45749;51.140;17.184;2023-07-13T13:08:12;99977.31;;;23.69;71.44
59877;BME280;45749;51.140;17.184;2023-07-13T13:10:38;99954.44;;;23.65;71.50
59877;BME280;45749;51.140;17.184;2023-07-13T13:13:04;99936.00;;;23.62;70.70
59877;BME280;45749;51.140;17.184;2023-07-13T13:15:29;99973.16;;;23.80;69.09
59877;BME280;45749;51.140;17.184;2023-07-13T13:17:56;99957.00;;;23.73;69.75
59877;BME280;45749;51.140;17.184;2023-07-13T13:20:21;99968.19;;;23.97;70.39